Skip Navigation Links Skip Navigation Links

Current Weather

Baton Rouge Metropolitan, Ryan Field, Baton Rouge, La.

For information only: do not use for flight planning or navigation.
Latest weather
Observation time Friday, August 14, 2020 10:53 AM CDT
Local time Friday, August 14, 2020 11:25 AM CDT
Flight conditions Visual Meteorological Conditions
Winds
Wind direction West-Southwest (250°)
Wind speed 13 mph
Visibility 10 mi.
Sky condition
Ceiling unlimited
Cloud layer few clouds 2,600 ft.
Temperature 89°F
Dewpoint 77°F
Altimeter 29.97 in.Hg
Derived measurements
Relative humidity 68%
Heat index 102°F
Density altitude 2344 ft.
Sea-level pressure 29.97 in.Hg
Remarks
Automated weather observing station with precipitation discriminator.
METAR KBTR 141553Z 25011KT 10SM FEW026 32/25 A2997 RMK AO2 SLP148 T03170250

Settings

Location code

InnerDrive.Weather 4.0.6770.0 Release CLR 4.0.30319.42000
Copyright ©2018 Inner Drive Technology. All rights reserved. Portions Copyright ©1986-2018 David Braverman.

Find weather

Site navigation


Skip Navigation Links

Place info

Page info

PayPal - The safer, easier way to pay online!

Return home.

Copyright ©2020 Inner Drive Technology. Purveyors of fine, hand-crafted computer software. Page printed 2020-08-14T16:25:56 UTC.